sensor_id;sensor_type;location;lat;lon;timestamp;P1;durP1;ratioP1;P2;durP2;ratioP2
13197;SDS011;6664;52.514;13.440;2023-05-07T00:01:02;9.80;;;6.87;;
13197;SDS011;6664;52.514;13.440;2023-05-07T00:03:51;9.37;;;6.70;;
13197;SDS011;6664;52.514;13.440;2023-05-07T00:06:39;9.10;;;5.97;;
13197;SDS011;6664;52.514;13.440;2023-05-07T00:09:29;9.97;;;6.73;;
13197;SDS011;6664;52.514;13.440;2023-05-07T00:12:14;9.47;;;7.10;;
13197;SDS011;6664;52.514;13.440;2023-05-07T00:15:01;9.03;;;6.27;;
13197;SDS011;6664;52.514;13.440;2023-05-07T00:17:47;6.87;;;5.83;;
13197;SDS011;6664;52.514;13.440;2023-05-07T00:20:35;9.80;;;6.50;;
13197;SDS011;6664;52.514;13.440;2023-05-07T00:23:21;9.50;;;5.97;;
13197;SDS011;6664;52.514;13.440;2023-05-07T00:26:07;9.87;;;6.37;;
13197;SDS011;6664;52.514;13.440;2023-05-07T00:28:52;7.97;;;5.80;;
13197;SDS011;6664;52.514;13.440;2023-05-07T00:31:40;12.13;;;6.67;;
13197;SDS011;6664;52.514;13.440;2023-05-07T00:34:25;8.80;;;6.10;;
13197;SDS011;6664;52.514;13.440;2023-05-07T00:37:11;5.50;;;4.90;;
13197;SDS011;6664;52.514;13.440;2023-05-07T00:39:56;7.10;;;5.50;;
13197;SDS011;6664;52.514;13.440;2023-05-07T00:42:42;7.73;;;5.60;;
13197;SDS011;6664;52.514;13.440;2023-05-07T00:45:34;9.43;;;5.67;;
13197;SDS011;6664;52.514;13.440;2023-05-07T00:48:20;8.60;;;6.00;;
13197;SDS011;6664;52.514;13.440;2023-05-07T00:51:06;6.90;;;6.10;;
13197;SDS011;6664;52.514;13.440;2023-05-07T00:53:51;7.50;;;6.10;;
13197;SDS011;6664;52.514;13.440;2023-05-07T00:56:38;7.93;;;6.77;;
13197;SDS011;6664;52.514;13.440;2023-05-07T00:59:24;6.23;;;5.63;;
13197;SDS011;6664;52.514;13.440;2023-05-07T01:02:10;6.90;;;6.23;;
13197;SDS011;6664;52.514;13.440;2023-05-07T01:04:56;6.20;;;5.63;;
13197;SDS011;6664;52.514;13.440;2023-05-07T01:07:42;6.00;;;5.40;;
13197;SDS011;6664;52.514;13.440;2023-05-07T01:10:31;7.80;;;6.93;;
13197;SDS011;6664;52.514;13.440;2023-05-07T01:13:17;7.07;;;6.37;;
13197;SDS011;6664;52.514;13.440;2023-05-07T01:16:04;6.93;;;6.03;;
13197;SDS011;6664;52.514;13.440;2023-05-07T01:18:50;7.60;;;6.77;;
13197;SDS011;6664;52.514;13.440;2023-05-07T01:21:35;8.13;;;5.97;;
13197;SDS011;6664;52.514;13.440;2023-05-07T01:24:23;6.43;;;5.83;;
13197;SDS011;6664;52.514;13.440;2023-05-07T01:27:09;8.17;;;6.00;;
13197;SDS011;6664;52.514;13.440;2023-05-07T01:29:54;8.33;;;6.67;;
13197;SDS011;6664;52.514;13.440;2023-05-07T01:32:45;8.20;;;5.23;;
13197;SDS011;6664;52.514;13.440;2023-05-07T01:35:37;8.60;;;6.03;;
13197;SDS011;6664;52.514;13.440;2023-05-07T01:38:25;10.43;;;7.23;;
13197;SDS011;6664;52.514;13.440;2023-05-07T01:41:14;8.77;;;5.50;;
13197;SDS011;6664;52.514;13.440;2023-05-07T01:44:02;12.63;;;6.73;;
13197;SDS011;6664;52.514;13.440;2023-05-07T01:46:49;7.10;;;6.40;;
13197;SDS011;6664;52.514;13.440;2023-05-07T01:49:34;5.20;;;4.80;;
13197;SDS011;6664;52.514;13.440;2023-05-07T01:52:23;6.43;;;5.70;;
13197;SDS011;6664;52.514;13.440;2023-05-07T01:55:12;6.83;;;5.97;;
13197;SDS011;6664;52.514;13.440;2023-05-07T01:58:00;6.87;;;6.13;;
13197;SDS011;6664;52.514;13.440;2023-05-07T02:00:46;7.70;;;5.43;;
13197;SDS011;6664;52.514;13.440;2023-05-07T02:03:31;14.53;;;6.00;;
13197;SDS011;6664;52.514;13.440;2023-05-07T02:06:18;6.13;;;5.50;;
13197;SDS011;6664;52.514;13.440;2023-05-07T02:09:04;9.30;;;5.77;;
13197;SDS011;6664;52.514;13.440;2023-05-07T02:11:50;7.70;;;5.53;;
13197;SDS011;6664;52.514;13.440;2023-05-07T02:14:35;6.97;;;6.27;;
13197;SDS011;6664;52.514;13.440;2023-05-07T02:17:21;8.23;;;5.93;;
13197;SDS011;6664;52.514;13.440;2023-05-07T02:20:06;7.57;;;5.80;;
13197;SDS011;6664;52.514;13.440;2023-05-07T02:22:58;10.50;;;5.87;;
13197;SDS011;6664;52.514;13.440;2023-05-07T02:25:43;7.00;;;6.20;;
13197;SDS011;6664;52.514;13.440;2023-05-07T02:28:33;6.70;;;4.93;;
13197;SDS011;6664;52.514;13.440;2023-05-07T02:31:20;7.00;;;5.60;;
13197;SDS011;6664;52.514;13.440;2023-05-07T02:34:06;7.10;;;6.17;;
13197;SDS011;6664;52.514;13.440;2023-05-07T02:36:51;6.80;;;5.97;;
13197;SDS011;6664;52.514;13.440;2023-05-07T02:39:40;8.50;;;5.73;;
13197;SDS011;6664;52.514;13.440;2023-05-07T02:42:25;6.83;;;5.40;;
13197;SDS011;6664;52.514;13.440;2023-05-07T02:45:11;5.73;;;5.00;;
13197;SDS011;6664;52.514;13.440;2023-05-07T02:47:56;7.20;;;5.70;;
13197;SDS011;6664;52.514;13.440;2023-05-07T02:50:42;6.53;;;5.83;;
13197;SDS011;6664;52.514;13.440;2023-05-07T02:53:27;6.73;;;5.60;;
13197;SDS011;6664;52.514;13.440;2023-05-07T02:56:16;8.23;;;4.90;;
13197;SDS011;6664;52.514;13.440;2023-05-07T02:59:02;5.77;;;4.87;;
13197;SDS011;6664;52.514;13.440;2023-05-07T03:01:47;9.67;;;5.97;;
13197;SDS011;6664;52.514;13.440;2023-05-07T03:04:33;6.00;;;5.33;;
13197;SDS011;6664;52.514;13.440;2023-05-07T03:07:18;6.20;;;5.10;;
13197;SDS011;6664;52.514;13.440;2023-05-07T03:10:04;6.60;;;5.43;;
13197;SDS011;6664;52.514;13.440;2023-05-07T03:12:50;9.97;;;5.40;;
13197;SDS011;6664;52.514;13.440;2023-05-07T03:15:36;6.00;;;5.10;;
13197;SDS011;6664;52.514;13.440;2023-05-07T03:18:24;6.77;;;5.00;;
13197;SDS011;6664;52.514;13.440;2023-05-07T03:21:09;13.87;;;6.57;;
13197;SDS011;6664;52.514;13.440;2023-05-07T03:23:55;8.20;;;6.07;;
13197;SDS011;6664;52.514;13.440;2023-05-07T03:26:40;6.37;;;5.60;;
13197;SDS011;6664;52.514;13.440;2023-05-07T03:29:26;5.73;;;5.20;;
13197;SDS011;6664;52.514;13.440;2023-05-07T03:32:12;6.33;;;5.30;;
13197;SDS011;6664;52.514;13.440;2023-05-07T03:34:57;6.40;;;4.90;;
13197;SDS011;6664;52.514;13.440;2023-05-07T03:37:43;7.90;;;5.60;;
13197;SDS011;6664;52.514;13.440;2023-05-07T03:40:30;5.60;;;5.03;;
13197;SDS011;6664;52.514;13.440;2023-05-07T03:43:15;6.20;;;5.00;;
13197;SDS011;6664;52.514;13.440;2023-05-07T03:46:03;6.77;;;5.80;;
13197;SDS011;6664;52.514;13.440;2023-05-07T03:48:48;5.93;;;5.30;;
13197;SDS011;6664;52.514;13.440;2023-05-07T03:51:34;6.50;;;5.20;;
13197;SDS011;6664;52.514;13.440;2023-05-07T03:54:20;12.50;;;5.37;;
13197;SDS011;6664;52.514;13.440;2023-05-07T03:57:08;7.10;;;5.07;;
13197;SDS011;6664;52.514;13.440;2023-05-07T03:59:54;5.23;;;4.73;;
13197;SDS011;6664;52.514;13.440;2023-05-07T04:02:42;6.40;;;5.63;;
13197;SDS011;6664;52.514;13.440;2023-05-07T04:05:30;5.70;;;4.77;;
13197;SDS011;6664;52.514;13.440;2023-05-07T04:08:15;8.20;;;5.53;;
13197;SDS011;6664;52.514;13.440;2023-05-07T04:11:03;5.20;;;4.20;;
13197;SDS011;6664;52.514;13.440;2023-05-07T04:13:48;5.53;;;4.90;;
13197;SDS011;6664;52.514;13.440;2023-05-07T04:16:34;5.13;;;4.63;;
13197;SDS011;6664;52.514;13.440;2023-05-07T04:19:20;6.43;;;5.40;;
13197;SDS011;6664;52.514;13.440;2023-05-07T04:22:06;5.73;;;5.10;;
13197;SDS011;6664;52.514;13.440;2023-05-07T04:24:51;5.43;;;4.70;;
13197;SDS011;6664;52.514;13.440;2023-05-07T04:27:37;4.93;;;4.40;;
13197;SDS011;6664;52.514;13.440;2023-05-07T04:30:25;5.10;;;4.67;;
13197;SDS011;6664;52.514;13.440;2023-05-07T04:33:11;9.10;;;5.40;;
13197;SDS011;6664;52.514;13.440;2023-05-07T04:35:57;5.03;;;4.60;;
13197;SDS011;6664;52.514;13.440;2023-05-07T04:38:47;4.60;;;4.20;;
13197;SDS011;6664;52.514;13.440;2023-05-07T04:41:35;5.43;;;3.63;;
13197;SDS011;6664;52.514;13.440;2023-05-07T04:44:23;5.17;;;4.67;;
13197;SDS011;6664;52.514;13.440;2023-05-07T04:47:09;5.07;;;4.27;;
13197;SDS011;6664;52.514;13.440;2023-05-07T04:49:55;4.70;;;4.20;;
13197;SDS011;6664;52.514;13.440;2023-05-07T04:52:42;4.87;;;4.47;;
13197;SDS011;6664;52.514;13.440;2023-05-07T04:55:30;4.30;;;3.90;;
13197;SDS011;6664;52.514;13.440;2023-05-07T04:58:15;4.07;;;3.70;;
13197;SDS011;6664;52.514;13.440;2023-05-07T05:01:01;3.60;;;3.30;;
13197;SDS011;6664;52.514;13.440;2023-05-07T05:03:46;7.50;;;4.43;;
13197;SDS011;6664;52.514;13.440;2023-05-07T05:06:33;3.83;;;3.43;;
13197;SDS011;6664;52.514;13.440;2023-05-07T05:09:19;5.57;;;4.00;;
13197;SDS011;6664;52.514;13.440;2023-05-07T05:12:05;4.47;;;3.13;;
13197;SDS011;6664;52.514;13.440;2023-05-07T05:14:51;5.03;;;3.70;;
13197;SDS011;6664;52.514;13.440;2023-05-07T05:17:37;6.13;;;3.93;;
13197;SDS011;6664;52.514;13.440;2023-05-07T05:20:23;3.97;;;3.60;;
13197;SDS011;6664;52.514;13.440;2023-05-07T05:23:11;3.57;;;3.27;;
13197;SDS011;6664;52.514;13.440;2023-05-07T05:25:57;4.30;;;3.90;;
13197;SDS011;6664;52.514;13.440;2023-05-07T05:28:43;4.53;;;4.13;;
13197;SDS011;6664;52.514;13.440;2023-05-07T05:31:28;4.10;;;3.70;;
13197;SDS011;6664;52.514;13.440;2023-05-07T05:34:17;7.80;;;4.00;;
13197;SDS011;6664;52.514;13.440;2023-05-07T05:37:04;4.17;;;3.77;;
13197;SDS011;6664;52.514;13.440;2023-05-07T05:39:50;6.23;;;4.20;;
13197;SDS011;6664;52.514;13.440;2023-05-07T05:42:41;4.43;;;4.03;;
13197;SDS011;6664;52.514;13.440;2023-05-07T05:45:27;4.03;;;3.70;;
13197;SDS011;6664;52.514;13.440;2023-05-07T05:48:12;6.40;;;4.33;;
13197;SDS011;6664;52.514;13.440;2023-05-07T05:50:58;5.33;;;4.07;;
13197;SDS011;6664;52.514;13.440;2023-05-07T05:53:45;4.70;;;4.10;;
13197;SDS011;6664;52.514;13.440;2023-05-07T05:56:31;5.17;;;4.40;;
13197;SDS011;6664;52.514;13.440;2023-05-07T05:59:17;5.07;;;3.93;;
13197;SDS011;6664;52.514;13.440;2023-05-07T06:02:03;6.50;;;4.43;;
13197;SDS011;6664;52.514;13.440;2023-05-07T06:04:49;7.20;;;3.90;;
13197;SDS011;6664;52.514;13.440;2023-05-07T06:07:35;4.10;;;3.70;;
13197;SDS011;6664;52.514;13.440;2023-05-07T06:10:20;5.17;;;4.00;;
13197;SDS011;6664;52.514;13.440;2023-05-07T06:13:05;7.37;;;4.17;;
13197;SDS011;6664;52.514;13.440;2023-05-07T06:15:54;5.33;;;4.20;;
13197;SDS011;6664;52.514;13.440;2023-05-07T06:18:39;4.47;;;4.17;;
13197;SDS011;6664;52.514;13.440;2023-05-07T06:21:27;4.20;;;3.80;;
13197;SDS011;6664;52.514;13.440;2023-05-07T06:24:12;3.83;;;3.53;;
13197;SDS011;6664;52.514;13.440;2023-05-07T06:27:00;6.00;;;4.63;;
13197;SDS011;6664;52.514;13.440;2023-05-07T06:29:52;6.87;;;4.40;;
13197;SDS011;6664;52.514;13.440;2023-05-07T06:32:37;4.20;;;3.80;;
13197;SDS011;6664;52.514;13.440;2023-05-07T06:35:27;4.77;;;3.83;;
13197;SDS011;6664;52.514;13.440;2023-05-07T06:38:15;4.20;;;3.80;;
13197;SDS011;6664;52.514;13.440;2023-05-07T06:41:05;3.43;;;3.17;;
13197;SDS011;6664;52.514;13.440;2023-05-07T06:43:52;3.17;;;2.97;;
13197;SDS011;6664;52.514;13.440;2023-05-07T06:46:37;4.00;;;3.70;;
13197;SDS011;6664;52.514;13.440;2023-05-07T06:49:25;3.80;;;3.50;;
13197;SDS011;6664;52.514;13.440;2023-05-07T06:52:10;3.93;;;3.63;;
13197;SDS011;6664;52.514;13.440;2023-05-07T06:54:56;7.80;;;3.10;;
13197;SDS011;6664;52.514;13.440;2023-05-07T06:57:43;6.20;;;3.50;;
13197;SDS011;6664;52.514;13.440;2023-05-07T07:00:28;3.93;;;3.60;;
13197;SDS011;6664;52.514;13.440;2023-05-07T07:03:17;5.63;;;3.60;;
13197;SDS011;6664;52.514;13.440;2023-05-07T07:06:05;4.20;;;3.20;;
13197;SDS011;6664;52.514;13.440;2023-05-07T07:08:50;3.40;;;3.10;;
13197;SDS011;6664;52.514;13.440;2023-05-07T07:11:36;3.07;;;2.80;;
13197;SDS011;6664;52.514;13.440;2023-05-07T07:14:24;3.70;;;3.40;;
13197;SDS011;6664;52.514;13.440;2023-05-07T07:17:14;3.20;;;3.00;;
13197;SDS011;6664;52.514;13.440;2023-05-07T07:20:00;3.83;;;3.17;;
13197;SDS011;6664;52.514;13.440;2023-05-07T07:22:45;3.50;;;3.20;;
13197;SDS011;6664;52.514;13.440;2023-05-07T07:25:33;2.90;;;2.70;;
13197;SDS011;6664;52.514;13.440;2023-05-07T07:28:20;2.77;;;2.57;;
13197;SDS011;6664;52.514;13.440;2023-05-07T07:31:08;4.43;;;3.10;;
13197;SDS011;6664;52.514;13.440;2023-05-07T07:33:59;3.63;;;2.53;;
13197;SDS011;6664;52.514;13.440;2023-05-07T07:36:45;3.53;;;3.23;;
13197;SDS011;6664;52.514;13.440;2023-05-07T07:39:34;2.70;;;2.50;;
13197;SDS011;6664;52.514;13.440;2023-05-07T07:42:19;5.40;;;2.40;;
13197;SDS011;6664;52.514;13.440;2023-05-07T07:45:07;3.10;;;2.90;;
13197;SDS011;6664;52.514;13.440;2023-05-07T07:47:53;2.90;;;2.47;;
13197;SDS011;6664;52.514;13.440;2023-05-07T07:50:40;3.60;;;2.67;;
13197;SDS011;6664;52.514;13.440;2023-05-07T07:53:30;2.63;;;2.43;;
13197;SDS011;6664;52.514;13.440;2023-05-07T07:56:16;2.57;;;2.37;;
13197;SDS011;6664;52.514;13.440;2023-05-07T07:59:02;2.73;;;2.53;;
13197;SDS011;6664;52.514;13.440;2023-05-07T08:01:51;2.53;;;2.33;;
13197;SDS011;6664;52.514;13.440;2023-05-07T08:04:41;2.60;;;2.40;;
13197;SDS011;6664;52.514;13.440;2023-05-07T08:07:28;2.07;;;1.97;;
13197;SDS011;6664;52.514;13.440;2023-05-07T08:10:13;2.93;;;2.23;;
13197;SDS011;6664;52.514;13.440;2023-05-07T08:13:05;6.70;;;2.67;;
13197;SDS011;6664;52.514;13.440;2023-05-07T08:15:54;2.23;;;2.13;;
13197;SDS011;6664;52.514;13.440;2023-05-07T08:18:42;1.80;;;1.70;;
13197;SDS011;6664;52.514;13.440;2023-05-07T08:21:27;4.20;;;2.13;;
13197;SDS011;6664;52.514;13.440;2023-05-07T08:24:18;3.27;;;2.73;;
13197;SDS011;6664;52.514;13.440;2023-05-07T08:27:04;7.47;;;2.90;;
13197;SDS011;6664;52.514;13.440;2023-05-07T08:29:49;2.70;;;2.10;;
13197;SDS011;6664;52.514;13.440;2023-05-07T08:32:36;2.67;;;2.10;;
13197;SDS011;6664;52.514;13.440;2023-05-07T08:35:24;1.90;;;1.80;;
13197;SDS011;6664;52.514;13.440;2023-05-07T08:38:10;2.40;;;2.20;;
13197;SDS011;6664;52.514;13.440;2023-05-07T08:40:55;2.17;;;2.07;;
13197;SDS011;6664;52.514;13.440;2023-05-07T08:43:41;1.93;;;1.83;;
13197;SDS011;6664;52.514;13.440;2023-05-07T08:46:31;2.20;;;2.10;;
13197;SDS011;6664;52.514;13.440;2023-05-07T08:49:17;2.27;;;2.07;;
13197;SDS011;6664;52.514;13.440;2023-05-07T08:52:03;1.80;;;1.70;;
13197;SDS011;6664;52.514;13.440;2023-05-07T08:54:48;1.87;;;1.77;;
13197;SDS011;6664;52.514;13.440;2023-05-07T08:57:34;2.37;;;2.17;;
13197;SDS011;6664;52.514;13.440;2023-05-07T09:00:24;5.70;;;2.00;;
13197;SDS011;6664;52.514;13.440;2023-05-07T09:03:10;2.13;;;2.00;;
13197;SDS011;6664;52.514;13.440;2023-05-07T09:05:58;2.10;;;2.00;;
13197;SDS011;6664;52.514;13.440;2023-05-07T09:08:54;1.60;;;1.50;;
13197;SDS011;6664;52.514;13.440;2023-05-07T09:11:43;3.07;;;1.60;;
13197;SDS011;6664;52.514;13.440;2023-05-07T09:14:32;2.33;;;1.97;;
13197;SDS011;6664;52.514;13.440;2023-05-07T09:17:18;2.07;;;1.87;;
13197;SDS011;6664;52.514;13.440;2023-05-07T09:20:08;1.90;;;1.80;;
13197;SDS011;6664;52.514;13.440;2023-05-07T09:22:55;2.03;;;1.93;;
13197;SDS011;6664;52.514;13.440;2023-05-07T09:25:41;2.13;;;1.70;;
13197;SDS011;6664;52.514;13.440;2023-05-07T09:28:27;3.63;;;1.93;;
13197;SDS011;6664;52.514;13.440;2023-05-07T09:31:12;2.00;;;1.90;;
13197;SDS011;6664;52.514;13.440;2023-05-07T09:33:58;2.33;;;2.00;;
13197;SDS011;6664;52.514;13.440;2023-05-07T09:36:43;2.43;;;2.23;;
13197;SDS011;6664;52.514;13.440;2023-05-07T09:39:43;3.57;;;2.30;;
13197;SDS011;6664;52.514;13.440;2023-05-07T09:42:30;3.53;;;2.03;;
13197;SDS011;6664;52.514;13.440;2023-05-07T09:45:28;2.37;;;1.97;;
13197;SDS011;6664;52.514;13.440;2023-05-07T09:48:14;1.37;;;1.27;;
13197;SDS011;6664;52.514;13.440;2023-05-07T09:51:05;4.57;;;1.77;;
13197;SDS011;6664;52.514;13.440;2023-05-07T09:53:56;2.60;;;1.57;;
13197;SDS011;6664;52.514;13.440;2023-05-07T09:56:45;2.17;;;1.50;;
13197;SDS011;6664;52.514;13.440;2023-05-07T09:59:35;2.30;;;2.20;;
13197;SDS011;6664;52.514;13.440;2023-05-07T10:02:23;4.60;;;1.80;;
13197;SDS011;6664;52.514;13.440;2023-05-07T10:05:12;2.77;;;1.97;;
13197;SDS011;6664;52.514;13.440;2023-05-07T10:08:02;2.10;;;1.60;;
13197;SDS011;6664;52.514;13.440;2023-05-07T10:10:48;7.30;;;1.83;;
13197;SDS011;6664;52.514;13.440;2023-05-07T10:13:34;1.63;;;1.53;;
13197;SDS011;6664;52.514;13.440;2023-05-07T10:16:20;7.53;;;1.47;;
13197;SDS011;6664;52.514;13.440;2023-05-07T10:19:06;1.23;;;1.13;;
13197;SDS011;6664;52.514;13.440;2023-05-07T10:21:55;1.30;;;1.20;;
13197;SDS011;6664;52.514;13.440;2023-05-07T10:24:44;1.73;;;1.50;;
13197;SDS011;6664;52.514;13.440;2023-05-07T10:27:34;1.17;;;1.17;;
13197;SDS011;6664;52.514;13.440;2023-05-07T10:33:23;1.20;;;1.07;;
13197;SDS011;6664;52.514;13.440;2023-05-07T10:36:12;1.50;;;1.40;;
13197;SDS011;6664;52.514;13.440;2023-05-07T10:38:58;2.33;;;1.63;;
13197;SDS011;6664;52.514;13.440;2023-05-07T10:41:47;1.23;;;1.13;;
13197;SDS011;6664;52.514;13.440;2023-05-07T10:44:33;2.00;;;1.47;;
13197;SDS011;6664;52.514;13.440;2023-05-07T10:47:20;1.10;;;1.00;;
13197;SDS011;6664;52.514;13.440;2023-05-07T11:02:05;2.50;;;1.30;;
13197;SDS011;6664;52.514;13.440;2023-05-07T11:08:05;1.10;;;1.00;;
13197;SDS011;6664;52.514;13.440;2023-05-07T11:10:51;1.27;;;1.20;;
13197;SDS011;6664;52.514;13.440;2023-05-07T11:13:42;2.70;;;1.30;;
13197;SDS011;6664;52.514;13.440;2023-05-07T11:16:28;1.27;;;1.27;;
13197;SDS011;6664;52.514;13.440;2023-05-07T11:19:14;1.30;;;1.20;;
13197;SDS011;6664;52.514;13.440;2023-05-07T11:22:00;0.97;;;0.97;;
13197;SDS011;6664;52.514;13.440;2023-05-07T11:24:46;1.63;;;1.10;;
13197;SDS011;6664;52.514;13.440;2023-05-07T11:27:32;7.50;;;1.40;;
13197;SDS011;6664;52.514;13.440;2023-05-07T11:30:18;1.00;;;1.00;;
13197;SDS011;6664;52.514;13.440;2023-05-07T11:33:03;1.30;;;1.20;;
13197;SDS011;6664;52.514;13.440;2023-05-07T11:35:50;1.20;;;1.20;;
13197;SDS011;6664;52.514;13.440;2023-05-07T11:38:38;1.30;;;1.20;;
13197;SDS011;6664;52.514;13.440;2023-05-07T11:41:34;1.37;;;1.10;;
13197;SDS011;6664;52.514;13.440;2023-05-07T11:44:21;1.33;;;1.23;;
13197;SDS011;6664;52.514;13.440;2023-05-07T11:47:09;1.17;;;1.17;;
13197;SDS011;6664;52.514;13.440;2023-05-07T11:50:02;1.40;;;1.30;;
13197;SDS011;6664;52.514;13.440;2023-05-07T11:52:52;6.20;;;1.30;;
13197;SDS011;6664;52.514;13.440;2023-05-07T11:55:38;1.87;;;1.37;;
13197;SDS011;6664;52.514;13.440;2023-05-07T11:58:24;1.47;;;1.23;;
13197;SDS011;6664;52.514;13.440;2023-05-07T12:01:12;1.47;;;1.10;;
13197;SDS011;6664;52.514;13.440;2023-05-07T12:03:58;1.87;;;1.13;;
13197;SDS011;6664;52.514;13.440;2023-05-07T12:06:48;1.63;;;1.53;;
13197;SDS011;6664;52.514;13.440;2023-05-07T12:09:35;4.13;;;1.43;;
13197;SDS011;6664;52.514;13.440;2023-05-07T12:12:21;2.13;;;1.20;;
13197;SDS011;6664;52.514;13.440;2023-05-07T12:15:15;4.03;;;1.53;;
13197;SDS011;6664;52.514;13.440;2023-05-07T12:18:00;1.40;;;1.30;;
13197;SDS011;6664;52.514;13.440;2023-05-07T12:20:46;1.30;;;1.20;;
13197;SDS011;6664;52.514;13.440;2023-05-07T12:23:37;3.30;;;1.50;;
13197;SDS011;6664;52.514;13.440;2023-05-07T12:26:25;2.87;;;1.27;;
13197;SDS011;6664;52.514;13.440;2023-05-07T12:29:13;1.67;;;1.10;;
13197;SDS011;6664;52.514;13.440;2023-05-07T12:31:58;1.20;;;1.17;;
13197;SDS011;6664;52.514;13.440;2023-05-07T12:34:51;2.10;;;1.40;;
13197;SDS011;6664;52.514;13.440;2023-05-07T12:37:37;1.10;;;1.00;;
13197;SDS011;6664;52.514;13.440;2023-05-07T12:40:22;1.10;;;1.10;;
13197;SDS011;6664;52.514;13.440;2023-05-07T12:43:18;1.63;;;1.17;;
13197;SDS011;6664;52.514;13.440;2023-05-07T12:46:10;1.13;;;1.00;;
13197;SDS011;6664;52.514;13.440;2023-05-07T12:48:55;1.40;;;1.00;;
13197;SDS011;6664;52.514;13.440;2023-05-07T12:51:40;0.70;;;0.70;;
13197;SDS011;6664;52.514;13.440;2023-05-07T12:54:30;1.63;;;0.80;;
13197;SDS011;6664;52.514;13.440;2023-05-07T12:57:21;0.80;;;0.80;;
13197;SDS011;6664;52.514;13.440;2023-05-07T13:00:09;0.93;;;0.93;;
13197;SDS011;6664;52.514;13.440;2023-05-07T13:02:55;0.90;;;0.90;;
13197;SDS011;6664;52.514;13.440;2023-05-07T13:05:41;1.43;;;1.00;;
13197;SDS011;6664;52.514;13.440;2023-05-07T13:08:36;1.30;;;1.30;;
13197;SDS011;6664;52.514;13.440;2023-05-07T13:11:27;0.90;;;0.90;;
13197;SDS011;6664;52.514;13.440;2023-05-07T13:14:13;1.30;;;1.20;;
13197;SDS011;6664;52.514;13.440;2023-05-07T13:17:01;2.30;;;0.87;;
13197;SDS011;6664;52.514;13.440;2023-05-07T13:19:47;0.93;;;0.93;;
13197;SDS011;6664;52.514;13.440;2023-05-07T13:22:32;3.22;;;1.10;;
13197;SDS011;6664;52.514;13.440;2023-05-07T13:25:18;0.80;;;0.80;;
13197;SDS011;6664;52.514;13.440;2023-05-07T13:28:04;1.47;;;1.10;;
13197;SDS011;6664;52.514;13.440;2023-05-07T13:30:55;1.00;;;1.00;;
13197;SDS011;6664;52.514;13.440;2023-05-07T13:33:41;1.07;;;1.00;;
13197;SDS011;6664;52.514;13.440;2023-05-07T13:36:26;0.90;;;0.90;;
13197;SDS011;6664;52.514;13.440;2023-05-07T13:39:11;1.07;;;1.00;;
13197;SDS011;6664;52.514;13.440;2023-05-07T13:41:57;1.33;;;1.00;;
13197;SDS011;6664;52.514;13.440;2023-05-07T13:44:42;1.43;;;1.00;;
13197;SDS011;6664;52.514;13.440;2023-05-07T13:47:28;0.90;;;0.90;;
13197;SDS011;6664;52.514;13.440;2023-05-07T13:50:16;1.20;;;0.90;;
13197;SDS011;6664;52.514;13.440;2023-05-07T13:53:04;1.17;;;0.90;;
13197;SDS011;6664;52.514;13.440;2023-05-07T13:55:52;1.33;;;1.20;;
13197;SDS011;6664;52.514;13.440;2023-05-07T13:58:42;1.67;;;1.40;;
13197;SDS011;6664;52.514;13.440;2023-05-07T14:01:43;1.27;;;1.17;;
13197;SDS011;6664;52.514;13.440;2023-05-07T14:04:28;0.90;;;0.90;;
13197;SDS011;6664;52.514;13.440;2023-05-07T14:07:15;1.30;;;1.20;;
13197;SDS011;6664;52.514;13.440;2023-05-07T14:10:02;2.90;;;1.00;;
13197;SDS011;6664;52.514;13.440;2023-05-07T14:12:49;1.50;;;1.40;;
13197;SDS011;6664;52.514;13.440;2023-05-07T14:15:35;1.47;;;1.37;;
13197;SDS011;6664;52.514;13.440;2023-05-07T14:18:21;1.93;;;1.40;;
13197;SDS011;6664;52.514;13.440;2023-05-07T14:21:07;1.60;;;1.23;;
13197;SDS011;6664;52.514;13.440;2023-05-07T14:23:54;3.73;;;1.40;;
13197;SDS011;6664;52.514;13.440;2023-05-07T14:26:41;1.20;;;1.10;;
13197;SDS011;6664;52.514;13.440;2023-05-07T14:29:27;2.40;;;1.20;;
13197;SDS011;6664;52.514;13.440;2023-05-07T14:32:17;1.73;;;1.10;;
13197;SDS011;6664;52.514;13.440;2023-05-07T14:35:03;1.00;;;1.00;;
13197;SDS011;6664;52.514;13.440;2023-05-07T14:37:49;1.17;;;1.07;;
13197;SDS011;6664;52.514;13.440;2023-05-07T14:40:36;1.70;;;1.00;;
13197;SDS011;6664;52.514;13.440;2023-05-07T14:43:25;1.93;;;0.97;;
13197;SDS011;6664;52.514;13.440;2023-05-07T14:46:10;1.03;;;1.03;;
13197;SDS011;6664;52.514;13.440;2023-05-07T14:48:56;1.10;;;1.10;;
13197;SDS011;6664;52.514;13.440;2023-05-07T14:51:45;1.20;;;1.10;;
13197;SDS011;6664;52.514;13.440;2023-05-07T14:54:33;1.10;;;0.90;;
13197;SDS011;6664;52.514;13.440;2023-05-07T14:57:22;1.00;;;1.00;;
13197;SDS011;6664;52.514;13.440;2023-05-07T15:00:10;1.33;;;1.00;;
13197;SDS011;6664;52.514;13.440;2023-05-07T15:02:56;1.27;;;1.10;;
13197;SDS011;6664;52.514;13.440;2023-05-07T15:05:54;1.37;;;1.27;;
13197;SDS011;6664;52.514;13.440;2023-05-07T15:08:42;0.80;;;0.80;;
13197;SDS011;6664;52.514;13.440;2023-05-07T15:11:28;1.43;;;1.10;;
13197;SDS011;6664;52.514;13.440;2023-05-07T15:14:13;1.33;;;1.23;;
13197;SDS011;6664;52.514;13.440;2023-05-07T15:17:00;2.40;;;1.10;;
13197;SDS011;6664;52.514;13.440;2023-05-07T15:19:45;2.43;;;0.93;;
13197;SDS011;6664;52.514;13.440;2023-05-07T15:22:35;1.03;;;0.97;;
13197;SDS011;6664;52.514;13.440;2023-05-07T15:25:22;1.00;;;1.00;;
13197;SDS011;6664;52.514;13.440;2023-05-07T15:28:10;5.13;;;1.03;;
13197;SDS011;6664;52.514;13.440;2023-05-07T15:30:58;0.97;;;0.97;;
13197;SDS011;6664;52.514;13.440;2023-05-07T15:33:44;0.80;;;0.80;;
13197;SDS011;6664;52.514;13.440;2023-05-07T15:36:29;1.23;;;1.10;;
13197;SDS011;6664;52.514;13.440;2023-05-07T15:39:15;5.50;;;1.17;;
13197;SDS011;6664;52.514;13.440;2023-05-07T15:42:01;1.00;;;1.00;;
13197;SDS011;6664;52.514;13.440;2023-05-07T15:44:47;1.20;;;1.10;;
13197;SDS011;6664;52.514;13.440;2023-05-07T15:47:33;4.77;;;1.00;;
13197;SDS011;6664;52.514;13.440;2023-05-07T15:50:22;3.73;;;1.00;;
13197;SDS011;6664;52.514;13.440;2023-05-07T15:53:10;0.90;;;0.90;;
13197;SDS011;6664;52.514;13.440;2023-05-07T15:55:57;2.60;;;1.07;;
13197;SDS011;6664;52.514;13.440;2023-05-07T15:58:42;3.10;;;1.07;;
13197;SDS011;6664;52.514;13.440;2023-05-07T16:01:31;1.10;;;1.00;;
13197;SDS011;6664;52.514;13.440;2023-05-07T16:04:17;1.17;;;1.10;;
13197;SDS011;6664;52.514;13.440;2023-05-07T16:07:04;1.43;;;0.93;;
13197;SDS011;6664;52.514;13.440;2023-05-07T16:09:49;1.10;;;1.00;;
13197;SDS011;6664;52.514;13.440;2023-05-07T16:12:39;1.83;;;1.10;;
13197;SDS011;6664;52.514;13.440;2023-05-07T16:15:27;0.83;;;0.83;;
13197;SDS011;6664;52.514;13.440;2023-05-07T16:18:13;4.63;;;1.43;;
13197;SDS011;6664;52.514;13.440;2023-05-07T16:21:01;0.80;;;0.80;;
13197;SDS011;6664;52.514;13.440;2023-05-07T16:23:51;1.00;;;1.00;;
13197;SDS011;6664;52.514;13.440;2023-05-07T16:26:37;1.23;;;0.87;;
13197;SDS011;6664;52.514;13.440;2023-05-07T16:29:22;1.10;;;1.00;;
13197;SDS011;6664;52.514;13.440;2023-05-07T16:32:08;1.20;;;1.10;;
13197;SDS011;6664;52.514;13.440;2023-05-07T16:34:56;1.30;;;1.20;;
13197;SDS011;6664;52.514;13.440;2023-05-07T16:37:41;1.40;;;1.30;;
13197;SDS011;6664;52.514;13.440;2023-05-07T16:40:30;1.20;;;1.10;;
13197;SDS011;6664;52.514;13.440;2023-05-07T16:43:16;1.73;;;1.10;;
13197;SDS011;6664;52.514;13.440;2023-05-07T16:46:02;1.33;;;1.23;;
13197;SDS011;6664;52.514;13.440;2023-05-07T16:48:47;2.03;;;1.03;;
13197;SDS011;6664;52.514;13.440;2023-05-07T16:51:33;2.20;;;1.10;;
13197;SDS011;6664;52.514;13.440;2023-05-07T16:54:19;3.07;;;1.67;;
13197;SDS011;6664;52.514;13.440;2023-05-07T16:57:05;1.37;;;1.27;;
13197;SDS011;6664;52.514;13.440;2023-05-07T16:59:50;1.57;;;1.03;;
13197;SDS011;6664;52.514;13.440;2023-05-07T17:02:36;1.37;;;1.10;;
13197;SDS011;6664;52.514;13.440;2023-05-07T17:05:25;2.40;;;1.00;;